sensor_id;sensor_type;location;lat;lon;timestamp;P1;durP1;ratioP1;P2;durP2;ratioP2
67930;SDS011;63902;52.000;5.954;2023-05-10T00:00:29;18.58;;;10.23;;
67930;SDS011;63902;52.000;5.954;2023-05-10T00:01:29;15.27;;;9.77;;
67930;SDS011;63902;52.000;5.954;2023-05-10T00:02:30;15.27;;;9.80;;
67930;SDS011;63902;52.000;5.954;2023-05-10T00:03:30;14.25;;;9.65;;
67930;SDS011;63902;52.000;5.954;2023-05-10T00:04:31;16.98;;;10.73;;
67930;SDS011;63902;52.000;5.954;2023-05-10T00:05:31;17.90;;;10.65;;
67930;SDS011;63902;52.000;5.954;2023-05-10T00:06:33;18.65;;;9.88;;
67930;SDS011;63902;52.000;5.954;2023-05-10T00:07:34;18.95;;;10.88;;
67930;SDS011;63902;52.000;5.954;2023-05-10T00:08:34;18.75;;;11.05;;
67930;SDS011;63902;52.000;5.954;2023-05-10T00:09:35;20.13;;;10.95;;
67930;SDS011;63902;52.000;5.954;2023-05-10T00:10:35;18.73;;;11.30;;
67930;SDS011;63902;52.000;5.954;2023-05-10T00:11:36;17.33;;;11.50;;
67930;SDS011;63902;52.000;5.954;2023-05-10T00:12:36;16.48;;;10.60;;
67930;SDS011;63902;52.000;5.954;2023-05-10T00:13:37;19.65;;;10.80;;
67930;SDS011;63902;52.000;5.954;2023-05-10T00:14:38;20.58;;;11.43;;
67930;SDS011;63902;52.000;5.954;2023-05-10T00:15:38;19.38;;;11.48;;
67930;SDS011;63902;52.000;5.954;2023-05-10T00:16:38;18.95;;;10.90;;
67930;SDS011;63902;52.000;5.954;2023-05-10T00:17:39;19.77;;;11.27;;
67930;SDS011;63902;52.000;5.954;2023-05-10T00:18:39;17.77;;;11.15;;
67930;SDS011;63902;52.000;5.954;2023-05-10T00:19:40;18.27;;;11.18;;
67930;SDS011;63902;52.000;5.954;2023-05-10T00:20:40;22.35;;;11.27;;
67930;SDS011;63902;52.000;5.954;2023-05-10T00:21:42;19.02;;;11.25;;
67930;SDS011;63902;52.000;5.954;2023-05-10T00:22:43;22.02;;;12.13;;
67930;SDS011;63902;52.000;5.954;2023-05-10T00:23:43;21.40;;;11.82;;
67930;SDS011;63902;52.000;5.954;2023-05-10T00:24:44;18.73;;;11.57;;
67930;SDS011;63902;52.000;5.954;2023-05-10T00:25:44;20.27;;;12.30;;
67930;SDS011;63902;52.000;5.954;2023-05-10T00:26:44;22.30;;;12.77;;
67930;SDS011;63902;52.000;5.954;2023-05-10T00:27:45;33.35;;;12.77;;
67930;SDS011;63902;52.000;5.954;2023-05-10T00:28:46;22.42;;;12.70;;
67930;SDS011;63902;52.000;5.954;2023-05-10T00:29:47;22.88;;;12.93;;
67930;SDS011;63902;52.000;5.954;2023-05-10T00:30:47;23.33;;;12.32;;
67930;SDS011;63902;52.000;5.954;2023-05-10T00:31:48;23.35;;;12.32;;
67930;SDS011;63902;52.000;5.954;2023-05-10T00:32:48;24.55;;;13.32;;
67930;SDS011;63902;52.000;5.954;2023-05-10T00:33:49;32.10;;;15.48;;
67930;SDS011;63902;52.000;5.954;2023-05-10T00:34:49;27.27;;;14.07;;
67930;SDS011;63902;52.000;5.954;2023-05-10T00:35:50;22.30;;;13.32;;
67930;SDS011;63902;52.000;5.954;2023-05-10T00:36:52;26.33;;;14.23;;
67930;SDS011;63902;52.000;5.954;2023-05-10T00:37:52;28.00;;;13.57;;
67930;SDS011;63902;52.000;5.954;2023-05-10T00:38:53;25.35;;;13.77;;
67930;SDS011;63902;52.000;5.954;2023-05-10T00:39:53;29.83;;;14.57;;
67930;SDS011;63902;52.000;5.954;2023-05-10T00:40:54;25.60;;;13.77;;
67930;SDS011;63902;52.000;5.954;2023-05-10T00:41:54;25.70;;;13.68;;
67930;SDS011;63902;52.000;5.954;2023-05-10T00:42:55;30.77;;;15.73;;
67930;SDS011;63902;52.000;5.954;2023-05-10T00:43:55;32.38;;;15.68;;
67930;SDS011;63902;52.000;5.954;2023-05-10T00:44:56;27.35;;;14.63;;
67930;SDS011;63902;52.000;5.954;2023-05-10T00:45:56;33.00;;;15.57;;
67930;SDS011;63902;52.000;5.954;2023-05-10T00:46:57;34.42;;;15.65;;
67930;SDS011;63902;52.000;5.954;2023-05-10T00:47:59;30.10;;;15.75;;
67930;SDS011;63902;52.000;5.954;2023-05-10T00:49:01;27.73;;;15.65;;
67930;SDS011;63902;52.000;5.954;2023-05-10T00:50:02;29.27;;;15.45;;
67930;SDS011;63902;52.000;5.954;2023-05-10T00:51:04;30.05;;;15.75;;
67930;SDS011;63902;52.000;5.954;2023-05-10T00:52:06;30.98;;;16.85;;
67930;SDS011;63902;52.000;5.954;2023-05-10T00:53:07;30.23;;;16.05;;
67930;SDS011;63902;52.000;5.954;2023-05-10T00:54:08;30.55;;;14.43;;
67930;SDS011;63902;52.000;5.954;2023-05-10T00:55:09;33.47;;;16.75;;
67930;SDS011;63902;52.000;5.954;2023-05-10T00:56:11;36.50;;;16.02;;
67930;SDS011;63902;52.000;5.954;2023-05-10T00:57:12;31.08;;;16.15;;
67930;SDS011;63902;52.000;5.954;2023-05-10T00:58:13;37.13;;;16.33;;
67930;SDS011;63902;52.000;5.954;2023-05-10T00:59:14;35.15;;;16.15;;
67930;SDS011;63902;52.000;5.954;2023-05-10T01:00:15;33.90;;;15.90;;
67930;SDS011;63902;52.000;5.954;2023-05-10T01:01:16;33.13;;;16.73;;
67930;SDS011;63902;52.000;5.954;2023-05-10T01:02:16;32.58;;;16.67;;
67930;SDS011;63902;52.000;5.954;2023-05-10T01:03:17;32.47;;;15.45;;
67930;SDS011;63902;52.000;5.954;2023-05-10T01:04:17;36.17;;;16.73;;
67930;SDS011;63902;52.000;5.954;2023-05-10T01:05:18;32.83;;;16.98;;
67930;SDS011;63902;52.000;5.954;2023-05-10T01:06:19;38.65;;;17.77;;
67930;SDS011;63902;52.000;5.954;2023-05-10T01:07:20;32.30;;;17.33;;
67930;SDS011;63902;52.000;5.954;2023-05-10T01:08:21;34.63;;;17.23;;
67930;SDS011;63902;52.000;5.954;2023-05-10T01:09:21;31.48;;;15.55;;
67930;SDS011;63902;52.000;5.954;2023-05-10T01:10:22;36.90;;;17.98;;
67930;SDS011;63902;52.000;5.954;2023-05-10T01:11:23;35.33;;;18.10;;
67930;SDS011;63902;52.000;5.954;2023-05-10T01:12:24;36.15;;;18.02;;
67930;SDS011;63902;52.000;5.954;2023-05-10T01:13:28;32.50;;;17.38;;
67930;SDS011;63902;52.000;5.954;2023-05-10T01:14:33;39.78;;;18.98;;
67930;SDS011;63902;52.000;5.954;2023-05-10T01:15:35;38.20;;;19.15;;
67930;SDS011;63902;52.000;5.954;2023-05-10T01:16:37;39.95;;;18.20;;
67930;SDS011;63902;52.000;5.954;2023-05-10T01:17:39;41.13;;;18.63;;
67930;SDS011;63902;52.000;5.954;2023-05-10T01:18:42;39.53;;;17.98;;
67930;SDS011;63902;52.000;5.954;2023-05-10T01:19:44;37.35;;;18.38;;
67930;SDS011;63902;52.000;5.954;2023-05-10T01:20:44;40.25;;;19.33;;
67930;SDS011;63902;52.000;5.954;2023-05-10T01:21:49;40.05;;;20.88;;
67930;SDS011;63902;52.000;5.954;2023-05-10T01:24:38;37.77;;;19.53;;
67930;SDS011;63902;52.000;5.954;2023-05-10T01:26:02;37.30;;;18.95;;
67930;SDS011;63902;52.000;5.954;2023-05-10T01:27:30;40.33;;;19.88;;
67930;SDS011;63902;52.000;5.954;2023-05-10T01:28:46;37.72;;;19.30;;
67930;SDS011;63902;52.000;5.954;2023-05-10T01:32:00;37.92;;;19.05;;
67930;SDS011;63902;52.000;5.954;2023-05-10T01:33:13;41.47;;;20.40;;
67930;SDS011;63902;52.000;5.954;2023-05-10T01:34:19;47.83;;;21.02;;
67930;SDS011;63902;52.000;5.954;2023-05-10T01:35:26;43.08;;;20.90;;
67930;SDS011;63902;52.000;5.954;2023-05-10T01:36:38;45.13;;;21.42;;
67930;SDS011;63902;52.000;5.954;2023-05-10T01:37:43;45.58;;;20.83;;
67930;SDS011;63902;52.000;5.954;2023-05-10T01:38:49;42.72;;;21.42;;
67930;SDS011;63902;52.000;5.954;2023-05-10T01:39:54;42.10;;;20.73;;
67930;SDS011;63902;52.000;5.954;2023-05-10T01:41:03;45.53;;;21.38;;
67930;SDS011;63902;52.000;5.954;2023-05-10T01:42:14;44.95;;;21.58;;
67930;SDS011;63902;52.000;5.954;2023-05-10T01:43:19;53.17;;;22.58;;
67930;SDS011;63902;52.000;5.954;2023-05-10T01:44:24;48.20;;;22.02;;
67930;SDS011;63902;52.000;5.954;2023-05-10T01:45:32;51.45;;;22.80;;
67930;SDS011;63902;52.000;5.954;2023-05-10T01:46:37;49.28;;;22.42;;
67930;SDS011;63902;52.000;5.954;2023-05-10T01:47:41;46.83;;;22.30;;
67930;SDS011;63902;52.000;5.954;2023-05-10T01:48:46;45.22;;;23.25;;
67930;SDS011;63902;52.000;5.954;2023-05-10T01:49:49;46.20;;;22.60;;
67930;SDS011;63902;52.000;5.954;2023-05-10T01:50:51;49.47;;;23.80;;
67930;SDS011;63902;52.000;5.954;2023-05-10T01:51:53;48.30;;;23.70;;
67930;SDS011;63902;52.000;5.954;2023-05-10T01:52:59;51.47;;;23.27;;
67930;SDS011;63902;52.000;5.954;2023-05-10T01:54:01;49.50;;;24.73;;
67930;SDS011;63902;52.000;5.954;2023-05-10T01:55:05;57.15;;;24.67;;
67930;SDS011;63902;52.000;5.954;2023-05-10T01:56:08;50.53;;;22.80;;
67930;SDS011;63902;52.000;5.954;2023-05-10T01:57:10;53.13;;;23.30;;
67930;SDS011;63902;52.000;5.954;2023-05-10T01:58:14;56.65;;;23.40;;
67930;SDS011;63902;52.000;5.954;2023-05-10T01:59:29;46.83;;;22.40;;
67930;SDS011;63902;52.000;5.954;2023-05-10T02:00:34;50.30;;;22.70;;
67930;SDS011;63902;52.000;5.954;2023-05-10T02:01:35;48.35;;;23.10;;
67930;SDS011;63902;52.000;5.954;2023-05-10T02:02:37;52.28;;;23.73;;
67930;SDS011;63902;52.000;5.954;2023-05-10T02:03:42;46.63;;;23.05;;
67930;SDS011;63902;52.000;5.954;2023-05-10T02:04:43;54.63;;;24.25;;
67930;SDS011;63902;52.000;5.954;2023-05-10T02:05:46;50.22;;;22.95;;
67930;SDS011;63902;52.000;5.954;2023-05-10T02:06:49;49.67;;;22.75;;
67930;SDS011;63902;52.000;5.954;2023-05-10T02:07:53;51.67;;;24.67;;
67930;SDS011;63902;52.000;5.954;2023-05-10T02:08:54;48.35;;;23.25;;
67930;SDS011;63902;52.000;5.954;2023-05-10T02:09:55;57.03;;;24.30;;
67930;SDS011;63902;52.000;5.954;2023-05-10T02:10:57;50.47;;;22.85;;
67930;SDS011;63902;52.000;5.954;2023-05-10T02:11:59;44.63;;;22.02;;
67930;SDS011;63902;52.000;5.954;2023-05-10T02:13:02;53.08;;;23.27;;
67930;SDS011;63902;52.000;5.954;2023-05-10T02:14:05;48.25;;;22.90;;
67930;SDS011;63902;52.000;5.954;2023-05-10T02:15:10;52.28;;;23.98;;
67930;SDS011;63902;52.000;5.954;2023-05-10T02:16:12;46.78;;;22.35;;
67930;SDS011;63902;52.000;5.954;2023-05-10T02:17:14;53.53;;;23.75;;
67930;SDS011;63902;52.000;5.954;2023-05-10T02:18:16;48.15;;;22.75;;
67930;SDS011;63902;52.000;5.954;2023-05-10T02:19:19;47.53;;;22.73;;
67930;SDS011;63902;52.000;5.954;2023-05-10T02:20:22;48.55;;;23.38;;
67930;SDS011;63902;52.000;5.954;2023-05-10T02:21:24;47.70;;;23.27;;
67930;SDS011;63902;52.000;5.954;2023-05-10T02:22:27;49.50;;;22.23;;
67930;SDS011;63902;52.000;5.954;2023-05-10T02:23:28;48.78;;;23.08;;
67930;SDS011;63902;52.000;5.954;2023-05-10T02:24:30;44.65;;;22.45;;
67930;SDS011;63902;52.000;5.954;2023-05-10T02:25:33;47.92;;;23.00;;
67930;SDS011;63902;52.000;5.954;2023-05-10T02:26:35;50.92;;;22.25;;
67930;SDS011;63902;52.000;5.954;2023-05-10T02:27:37;46.33;;;22.77;;
67930;SDS011;63902;52.000;5.954;2023-05-10T02:28:41;46.95;;;21.42;;
67930;SDS011;63902;52.000;5.954;2023-05-10T02:29:42;41.58;;;21.08;;
67930;SDS011;63902;52.000;5.954;2023-05-10T02:30:44;41.47;;;20.75;;
67930;SDS011;63902;52.000;5.954;2023-05-10T02:31:46;46.85;;;22.05;;
67930;SDS011;63902;52.000;5.954;2023-05-10T02:32:48;44.10;;;21.52;;
67930;SDS011;63902;52.000;5.954;2023-05-10T02:33:49;45.95;;;19.58;;
67930;SDS011;63902;52.000;5.954;2023-05-10T02:34:52;46.33;;;21.48;;
67930;SDS011;63902;52.000;5.954;2023-05-10T02:35:53;42.97;;;20.52;;
67930;SDS011;63902;52.000;5.954;2023-05-10T02:36:55;39.15;;;19.48;;
67930;SDS011;63902;52.000;5.954;2023-05-10T02:37:56;42.22;;;19.60;;
67930;SDS011;63902;52.000;5.954;2023-05-10T02:38:58;45.17;;;19.95;;
67930;SDS011;63902;52.000;5.954;2023-05-10T02:40:02;41.35;;;19.65;;
67930;SDS011;63902;52.000;5.954;2023-05-10T02:41:05;45.42;;;21.45;;
67930;SDS011;63902;52.000;5.954;2023-05-10T02:42:07;50.42;;;20.75;;
67930;SDS011;63902;52.000;5.954;2023-05-10T02:43:12;45.30;;;21.10;;
67930;SDS011;63902;52.000;5.954;2023-05-10T02:44:14;40.72;;;19.75;;
67930;SDS011;63902;52.000;5.954;2023-05-10T02:45:18;44.58;;;20.42;;
67930;SDS011;63902;52.000;5.954;2023-05-10T02:46:21;48.85;;;20.75;;
67930;SDS011;63902;52.000;5.954;2023-05-10T02:47:22;43.33;;;20.05;;
67930;SDS011;63902;52.000;5.954;2023-05-10T02:48:23;43.72;;;19.88;;
67930;SDS011;63902;52.000;5.954;2023-05-10T02:49:23;40.72;;;20.58;;
67930;SDS011;63902;52.000;5.954;2023-05-10T02:50:26;49.47;;;20.38;;
67930;SDS011;63902;52.000;5.954;2023-05-10T02:51:30;44.28;;;20.95;;
67930;SDS011;63902;52.000;5.954;2023-05-10T02:52:36;48.05;;;21.05;;
67930;SDS011;63902;52.000;5.954;2023-05-10T02:53:40;45.75;;;21.65;;
67930;SDS011;63902;52.000;5.954;2023-05-10T02:54:44;43.65;;;20.45;;
67930;SDS011;63902;52.000;5.954;2023-05-10T02:55:48;49.20;;;21.08;;
67930;SDS011;63902;52.000;5.954;2023-05-10T02:56:53;50.35;;;20.90;;
67930;SDS011;63902;52.000;5.954;2023-05-10T02:57:59;46.05;;;20.55;;
67930;SDS011;63902;52.000;5.954;2023-05-10T02:59:00;45.65;;;21.70;;
67930;SDS011;63902;52.000;5.954;2023-05-10T03:00:01;50.75;;;20.63;;
67930;SDS011;63902;52.000;5.954;2023-05-10T03:01:02;54.83;;;21.83;;
67930;SDS011;63902;52.000;5.954;2023-05-10T03:02:03;47.05;;;20.67;;
67930;SDS011;63902;52.000;5.954;2023-05-10T03:03:04;48.65;;;21.70;;
67930;SDS011;63902;52.000;5.954;2023-05-10T03:04:04;42.72;;;21.63;;
67930;SDS011;63902;52.000;5.954;2023-05-10T03:05:05;49.45;;;20.85;;
67930;SDS011;63902;52.000;5.954;2023-05-10T03:06:07;47.90;;;21.85;;
67930;SDS011;63902;52.000;5.954;2023-05-10T03:07:08;49.97;;;20.88;;
67930;SDS011;63902;52.000;5.954;2023-05-10T03:08:09;46.35;;;21.27;;
67930;SDS011;63902;52.000;5.954;2023-05-10T03:09:10;49.67;;;22.48;;
67930;SDS011;63902;52.000;5.954;2023-05-10T03:10:11;50.15;;;21.30;;
67930;SDS011;63902;52.000;5.954;2023-05-10T03:11:20;50.60;;;21.58;;
67930;SDS011;63902;52.000;5.954;2023-05-10T03:12:31;48.38;;;21.70;;
67930;SDS011;63902;52.000;5.954;2023-05-10T03:13:43;52.22;;;21.35;;
67930;SDS011;63902;52.000;5.954;2023-05-10T03:14:53;46.10;;;21.13;;
67930;SDS011;63902;52.000;5.954;2023-05-10T03:16:03;44.15;;;21.63;;
67930;SDS011;63902;52.000;5.954;2023-05-10T03:17:10;50.75;;;21.40;;
67930;SDS011;63902;52.000;5.954;2023-05-10T03:18:15;46.70;;;21.08;;
67930;SDS011;63902;52.000;5.954;2023-05-10T03:19:22;49.35;;;22.30;;
67930;SDS011;63902;52.000;5.954;2023-05-10T03:20:29;52.60;;;22.42;;
67930;SDS011;63902;52.000;5.954;2023-05-10T03:21:32;50.47;;;20.88;;
67930;SDS011;63902;52.000;5.954;2023-05-10T03:22:47;50.63;;;22.92;;
67930;SDS011;63902;52.000;5.954;2023-05-10T03:23:54;55.97;;;21.33;;
67930;SDS011;63902;52.000;5.954;2023-05-10T03:24:58;51.20;;;22.55;;
67930;SDS011;63902;52.000;5.954;2023-05-10T03:26:01;52.20;;;22.55;;
67930;SDS011;63902;52.000;5.954;2023-05-10T03:27:04;54.03;;;23.40;;
67930;SDS011;63902;52.000;5.954;2023-05-10T03:28:05;52.10;;;23.27;;
67930;SDS011;63902;52.000;5.954;2023-05-10T03:29:07;50.38;;;23.33;;
67930;SDS011;63902;52.000;5.954;2023-05-10T03:30:10;52.95;;;22.73;;
67930;SDS011;63902;52.000;5.954;2023-05-10T03:31:12;58.03;;;23.55;;
67930;SDS011;63902;52.000;5.954;2023-05-10T03:32:13;51.95;;;23.27;;
67930;SDS011;63902;52.000;5.954;2023-05-10T03:33:14;56.15;;;24.48;;
67930;SDS011;63902;52.000;5.954;2023-05-10T03:34:14;56.22;;;23.00;;
67930;SDS011;63902;52.000;5.954;2023-05-10T03:35:15;61.17;;;25.13;;
67930;SDS011;63902;52.000;5.954;2023-05-10T03:36:15;53.97;;;23.33;;
67930;SDS011;63902;52.000;5.954;2023-05-10T03:37:18;53.33;;;22.95;;
67930;SDS011;63902;52.000;5.954;2023-05-10T03:38:18;55.42;;;24.60;;
67930;SDS011;63902;52.000;5.954;2023-05-10T03:39:19;62.85;;;25.13;;
67930;SDS011;63902;52.000;5.954;2023-05-10T03:40:19;55.63;;;22.80;;
67930;SDS011;63902;52.000;5.954;2023-05-10T03:41:20;55.15;;;25.40;;
67930;SDS011;63902;52.000;5.954;2023-05-10T03:42:20;55.38;;;23.63;;
67930;SDS011;63902;52.000;5.954;2023-05-10T03:43:21;55.13;;;24.65;;
67930;SDS011;63902;52.000;5.954;2023-05-10T03:44:21;46.72;;;22.15;;
67930;SDS011;63902;52.000;5.954;2023-05-10T03:45:22;43.33;;;22.27;;
67930;SDS011;63902;52.000;5.954;2023-05-10T03:46:22;65.20;;;24.58;;
67930;SDS011;63902;52.000;5.954;2023-05-10T03:47:23;47.10;;;22.77;;
67930;SDS011;63902;52.000;5.954;2023-05-10T03:48:23;54.60;;;23.38;;
67930;SDS011;63902;52.000;5.954;2023-05-10T03:49:24;52.58;;;24.45;;
67930;SDS011;63902;52.000;5.954;2023-05-10T03:50:24;49.35;;;22.05;;
67930;SDS011;63902;52.000;5.954;2023-05-10T03:51:25;45.65;;;20.92;;
67930;SDS011;63902;52.000;5.954;2023-05-10T03:52:27;49.45;;;23.65;;
67930;SDS011;63902;52.000;5.954;2023-05-10T03:53:27;51.63;;;23.98;;
67930;SDS011;63902;52.000;5.954;2023-05-10T03:54:28;52.70;;;24.67;;
67930;SDS011;63902;52.000;5.954;2023-05-10T03:55:28;47.92;;;22.83;;
67930;SDS011;63902;52.000;5.954;2023-05-10T03:56:29;53.60;;;23.33;;
67930;SDS011;63902;52.000;5.954;2023-05-10T03:57:29;51.72;;;21.92;;
67930;SDS011;63902;52.000;5.954;2023-05-10T03:58:30;46.88;;;21.42;;
67930;SDS011;63902;52.000;5.954;2023-05-10T03:59:30;48.72;;;22.17;;
67930;SDS011;63902;52.000;5.954;2023-05-10T04:00:31;51.55;;;22.40;;
67930;SDS011;63902;52.000;5.954;2023-05-10T04:01:31;55.65;;;22.52;;
67930;SDS011;63902;52.000;5.954;2023-05-10T04:02:32;52.40;;;22.73;;
67930;SDS011;63902;52.000;5.954;2023-05-10T04:03:32;53.78;;;24.55;;
67930;SDS011;63902;52.000;5.954;2023-05-10T04:04:33;49.17;;;23.92;;
67930;SDS011;63902;52.000;5.954;2023-05-10T04:05:33;49.22;;;22.98;;
67930;SDS011;63902;52.000;5.954;2023-05-10T04:06:33;52.35;;;22.52;;
67930;SDS011;63902;52.000;5.954;2023-05-10T04:07:35;43.13;;;21.00;;
67930;SDS011;63902;52.000;5.954;2023-05-10T04:08:36;51.40;;;23.10;;
67930;SDS011;63902;52.000;5.954;2023-05-10T04:09:36;49.35;;;23.85;;
67930;SDS011;63902;52.000;5.954;2023-05-10T04:10:37;53.33;;;22.58;;
67930;SDS011;63902;52.000;5.954;2023-05-10T04:11:37;53.10;;;22.50;;
67930;SDS011;63902;52.000;5.954;2023-05-10T04:12:38;50.97;;;24.08;;
67930;SDS011;63902;52.000;5.954;2023-05-10T04:13:38;51.22;;;22.33;;
67930;SDS011;63902;52.000;5.954;2023-05-10T04:14:39;51.00;;;23.15;;
67930;SDS011;63902;52.000;5.954;2023-05-10T04:15:39;54.58;;;23.77;;
67930;SDS011;63902;52.000;5.954;2023-05-10T04:16:40;52.90;;;22.70;;
67930;SDS011;63902;52.000;5.954;2023-05-10T04:17:40;50.65;;;22.63;;
67930;SDS011;63902;52.000;5.954;2023-05-10T04:18:41;48.78;;;23.05;;
67930;SDS011;63902;52.000;5.954;2023-05-10T04:19:41;52.08;;;22.20;;
67930;SDS011;63902;52.000;5.954;2023-05-10T04:20:42;48.92;;;22.33;;
67930;SDS011;63902;52.000;5.954;2023-05-10T04:21:42;47.65;;;21.23;;
67930;SDS011;63902;52.000;5.954;2023-05-10T04:22:44;49.90;;;23.25;;
67930;SDS011;63902;52.000;5.954;2023-05-10T04:23:45;46.58;;;20.83;;
67930;SDS011;63902;52.000;5.954;2023-05-10T04:24:45;52.00;;;22.50;;
67930;SDS011;63902;52.000;5.954;2023-05-10T04:25:46;48.42;;;21.60;;
67930;SDS011;63902;52.000;5.954;2023-05-10T04:26:46;48.47;;;21.85;;
67930;SDS011;63902;52.000;5.954;2023-05-10T04:27:46;46.63;;;20.33;;
67930;SDS011;63902;52.000;5.954;2023-05-10T04:28:47;50.22;;;21.85;;
67930;SDS011;63902;52.000;5.954;2023-05-10T04:29:48;51.15;;;22.02;;
67930;SDS011;63902;52.000;5.954;2023-05-10T04:30:48;46.58;;;21.27;;
67930;SDS011;63902;52.000;5.954;2023-05-10T04:31:49;48.25;;;21.30;;
67930;SDS011;63902;52.000;5.954;2023-05-10T04:32:49;48.67;;;22.15;;
67930;SDS011;63902;52.000;5.954;2023-05-10T04:33:50;46.70;;;21.50;;
67930;SDS011;63902;52.000;5.954;2023-05-10T04:34:50;40.08;;;19.55;;
67930;SDS011;63902;52.000;5.954;2023-05-10T04:35:51;51.30;;;21.92;;
67930;SDS011;63902;52.000;5.954;2023-05-10T04:36:51;52.30;;;22.13;;
67930;SDS011;63902;52.000;5.954;2023-05-10T04:37:53;48.17;;;22.00;;
67930;SDS011;63902;52.000;5.954;2023-05-10T04:38:53;45.42;;;19.92;;
67930;SDS011;63902;52.000;5.954;2023-05-10T04:39:54;50.10;;;20.50;;
67930;SDS011;63902;52.000;5.954;2023-05-10T04:40:55;45.80;;;21.35;;
67930;SDS011;63902;52.000;5.954;2023-05-10T04:42:04;51.58;;;21.08;;
67930;SDS011;63902;52.000;5.954;2023-05-10T04:43:04;46.08;;;21.00;;
67930;SDS011;63902;52.000;5.954;2023-05-10T04:44:05;47.67;;;20.10;;
67930;SDS011;63902;52.000;5.954;2023-05-10T04:45:06;51.60;;;20.75;;
67930;SDS011;63902;52.000;5.954;2023-05-10T04:46:07;47.67;;;21.98;;
67930;SDS011;63902;52.000;5.954;2023-05-10T04:47:07;48.60;;;21.13;;
67930;SDS011;63902;52.000;5.954;2023-05-10T04:48:08;48.75;;;21.35;;
67930;SDS011;63902;52.000;5.954;2023-05-10T04:49:08;51.50;;;22.45;;
67930;SDS011;63902;52.000;5.954;2023-05-10T04:50:09;49.10;;;20.65;;
67930;SDS011;63902;52.000;5.954;2023-05-10T04:51:09;49.50;;;22.45;;
67930;SDS011;63902;52.000;5.954;2023-05-10T04:52:10;50.55;;;21.02;;
67930;SDS011;63902;52.000;5.954;2023-05-10T04:53:12;45.45;;;21.58;;
67930;SDS011;63902;52.000;5.954;2023-05-10T04:54:12;42.10;;;20.80;;
67930;SDS011;63902;52.000;5.954;2023-05-10T04:55:12;42.53;;;21.17;;
67930;SDS011;63902;52.000;5.954;2023-05-10T04:56:13;52.95;;;21.85;;
67930;SDS011;63902;52.000;5.954;2023-05-10T04:57:13;44.08;;;20.23;;
67930;SDS011;63902;52.000;5.954;2023-05-10T04:58:14;50.22;;;20.48;;
67930;SDS011;63902;52.000;5.954;2023-05-10T04:59:15;44.63;;;20.20;;
67930;SDS011;63902;52.000;5.954;2023-05-10T05:00:16;57.58;;;22.38;;
67930;SDS011;63902;52.000;5.954;2023-05-10T05:01:16;45.92;;;20.00;;
67930;SDS011;63902;52.000;5.954;2023-05-10T05:02:17;45.40;;;20.00;;
67930;SDS011;63902;52.000;5.954;2023-05-10T05:03:18;54.15;;;21.80;;
67930;SDS011;63902;52.000;5.954;2023-05-10T05:04:18;50.67;;;20.90;;
67930;SDS011;63902;52.000;5.954;2023-05-10T05:05:19;48.20;;;20.67;;
67930;SDS011;63902;52.000;5.954;2023-05-10T05:06:19;53.50;;;21.98;;
67930;SDS011;63902;52.000;5.954;2023-05-10T05:07:20;48.03;;;20.08;;
67930;SDS011;63902;52.000;5.954;2023-05-10T05:08:22;52.80;;;21.77;;
67930;SDS011;63902;52.000;5.954;2023-05-10T05:09:22;55.30;;;21.73;;
67930;SDS011;63902;52.000;5.954;2023-05-10T05:10:22;55.17;;;21.58;;
67930;SDS011;63902;52.000;5.954;2023-05-10T05:11:23;46.38;;;20.92;;
67930;SDS011;63902;52.000;5.954;2023-05-10T05:12:24;51.67;;;20.85;;
67930;SDS011;63902;52.000;5.954;2023-05-10T05:13:24;52.72;;;20.55;;
67930;SDS011;63902;52.000;5.954;2023-05-10T05:14:25;49.35;;;20.73;;
67930;SDS011;63902;52.000;5.954;2023-05-10T05:15:25;49.13;;;20.90;;
67930;SDS011;63902;52.000;5.954;2023-05-10T05:16:26;39.35;;;19.60;;
67930;SDS011;63902;52.000;5.954;2023-05-10T05:17:27;51.42;;;20.85;;
67930;SDS011;63902;52.000;5.954;2023-05-10T05:18:27;46.53;;;21.05;;
67930;SDS011;63902;52.000;5.954;2023-05-10T05:19:28;54.22;;;22.17;;
67930;SDS011;63902;52.000;5.954;2023-05-10T05:20:31;43.97;;;20.23;;
67930;SDS011;63902;52.000;5.954;2023-05-10T05:21:32;49.50;;;20.33;;
67930;SDS011;63902;52.000;5.954;2023-05-10T05:22:33;48.78;;;21.23;;
67930;SDS011;63902;52.000;5.954;2023-05-10T05:23:34;47.90;;;19.83;;
67930;SDS011;63902;52.000;5.954;2023-05-10T05:24:35;50.50;;;20.65;;
67930;SDS011;63902;52.000;5.954;2023-05-10T05:25:36;57.47;;;21.52;;
67930;SDS011;63902;52.000;5.954;2023-05-10T05:26:36;44.97;;;20.83;;
67930;SDS011;63902;52.000;5.954;2023-05-10T05:27:37;45.40;;;20.70;;
67930;SDS011;63902;52.000;5.954;2023-05-10T05:28:37;53.33;;;20.33;;
67930;SDS011;63902;52.000;5.954;2023-05-10T05:29:38;50.83;;;20.52;;
67930;SDS011;63902;52.000;5.954;2023-05-10T05:30:38;49.72;;;20.92;;
67930;SDS011;63902;52.000;5.954;2023-05-10T05:31:39;44.25;;;20.77;;
67930;SDS011;63902;52.000;5.954;2023-05-10T05:32:39;54.28;;;22.30;;
67930;SDS011;63902;52.000;5.954;2023-05-10T05:33:39;48.22;;;20.10;;
67930;SDS011;63902;52.000;5.954;2023-05-10T05:34:40;57.00;;;20.65;;
67930;SDS011;63902;52.000;5.954;2023-05-10T05:35:40;45.63;;;19.75;;
67930;SDS011;63902;52.000;5.954;2023-05-10T05:36:41;50.25;;;21.40;;
67930;SDS011;63902;52.000;5.954;2023-05-10T05:37:41;48.05;;;20.35;;
67930;SDS011;63902;52.000;5.954;2023-05-10T05:38:43;48.30;;;20.17;;
67930;SDS011;63902;52.000;5.954;2023-05-10T05:39:44;48.00;;;19.17;;
67930;SDS011;63902;52.000;5.954;2023-05-10T05:40:45;46.05;;;19.15;;
67930;SDS011;63902;52.000;5.954;2023-05-10T05:41:45;44.45;;;19.70;;
67930;SDS011;63902;52.000;5.954;2023-05-10T05:42:45;49.28;;;20.60;;
67930;SDS011;63902;52.000;5.954;2023-05-10T05:43:46;51.85;;;21.25;;
67930;SDS011;63902;52.000;5.954;2023-05-10T05:44:46;46.47;;;19.70;;
67930;SDS011;63902;52.000;5.954;2023-05-10T05:45:47;57.00;;;21.13;;
67930;SDS011;63902;52.000;5.954;2023-05-10T05:46:48;43.15;;;20.80;;
67930;SDS011;63902;52.000;5.954;2023-05-10T05:47:48;44.03;;;20.42;;
67930;SDS011;63902;52.000;5.954;2023-05-10T05:48:49;47.38;;;19.05;;
67930;SDS011;63902;52.000;5.954;2023-05-10T05:49:49;50.40;;;20.75;;
67930;SDS011;63902;52.000;5.954;2023-05-10T05:50:53;54.90;;;20.75;;
67930;SDS011;63902;52.000;5.954;2023-05-10T05:51:58;49.42;;;20.55;;
67930;SDS011;63902;52.000;5.954;2023-05-10T05:52:58;49.80;;;20.20;;
67930;SDS011;63902;52.000;5.954;2023-05-10T05:54:00;42.97;;;19.73;;
67930;SDS011;63902;52.000;5.954;2023-05-10T05:55:01;50.63;;;20.05;;
67930;SDS011;63902;52.000;5.954;2023-05-10T05:56:01;50.15;;;20.48;;
67930;SDS011;63902;52.000;5.954;2023-05-10T05:57:02;51.35;;;20.30;;
67930;SDS011;63902;52.000;5.954;2023-05-10T05:58:02;43.17;;;19.83;;
67930;SDS011;63902;52.000;5.954;2023-05-10T05:59:03;48.55;;;19.80;;
67930;SDS011;63902;52.000;5.954;2023-05-10T06:00:04;52.00;;;19.50;;
67930;SDS011;63902;52.000;5.954;2023-05-10T06:01:06;48.40;;;19.98;;
67930;SDS011;63902;52.000;5.954;2023-05-10T06:02:06;49.13;;;21.17;;
67930;SDS011;63902;52.000;5.954;2023-05-10T06:03:07;48.15;;;19.83;;
67930;SDS011;63902;52.000;5.954;2023-05-10T06:04:07;52.38;;;19.85;;
67930;SDS011;63902;52.000;5.954;2023-05-10T06:05:08;46.05;;;20.13;;
67930;SDS011;63902;52.000;5.954;2023-05-10T06:06:08;50.28;;;18.30;;